Date,TemperatureHighF,TemperatureAvgF,TemperatureLowF,DewpointHighF,DewpointAvgF,DewpointLowF,HumidityHigh,HumidityAvg,HumidityLow,PressureMaxIn,PressureMinIn,WindSpeedMaxMPH,WindSpeedAvgMPH,GustSpeedMaxMPH,PrecipitationSumIn
2013-3-1,74.3,56.9,43.9,51.0,47.0,42.0,94,73,42,30.45,30.25,7,1,10,0.00
2013-3-2,71.6,58.0,47.0,52.0,48.2,44.0,90,71,50,30.27,30.07,8,2,11,0.00
2013-3-3,63.9,54.4,47.7,49.0,47.1,45.0,89,77,54,30.12,30.04,12,4,18,0.00
2013-3-4,59.7,49.8,45.4,47.0,44.4,41.0,91,82,62,30.16,30.06,14,4,15,0.00
2013-3-5,59.1,50.8,44.1,44.0,41.5,38.0,89,72,49,30.09,29.86,18,5,28,0.05
2013-3-6,55.1,49.8,40.5,46.0,41.3,37.0,89,73,53,30.09,29.85,19,4,38,0.13
2013-3-7,57.5,48.0,38.0,45.0,39.1,34.0,92,74,45,30.02,29.87,7,1,11,0.02
2013-3-8,60.3,49.8,41.3,45.0,42.3,38.0,94,77,51,30.07,29.84,10,2,17,0.01
2013-3-9,67.8,51.6,38.3,44.0,39.7,35.0,94,68,30,30.33,30.08,12,2,16,0.00
2013-3-10,70.3,53.8,37.4,44.0,36.3,28.0,92,58,22,30.38,30.27,10,2,14,0.00
2013-3-11,73.5,55.7,40.2,46.0,39.6,36.0,85,59,28,30.28,30.11,9,2,13,0.00
2013-3-12,77.2,59.1,44.0,50.0,45.3,40.0,86,63,36,30.16,30.07,7,2,11,0.00
2013-3-13,78.2,62.1,47.1,55.0,50.4,45.0,92,68,44,30.17,30.06,8,2,12,0.00
2013-3-14,74.1,60.7,50.1,57.0,51.0,47.0,92,72,42,30.16,30.09,10,2,13,0.00
2013-3-15,73.8,60.1,47.8,53.0,48.0,44.0,89,66,45,30.14,30.04,11,3,15,0.00
2013-3-16,72.6,56.1,46.6,53.0,47.9,46.0,97,77,43,30.12,30.04,11,4,16,0.00
2013-3-17,70.1,55.2,43.7,46.0,43.6,40.0,90,68,35,30.17,30.05,9,2,17,0.00
2013-3-18,68.3,53.9,42.5,48.0,43.9,40.0,90,71,46,30.12,29.53,8,3,13,0.00
2013-3-19,71.6,55.6,46.6,47.0,44.0,39.0,89,68,35,29.64,29.57,12,3,17,0.03
2013-3-20,65.0,55.4,50.4,55.0,50.9,46.0,94,85,57,29.64,29.58,10,3,16,0.02
2013-3-21,65.6,53.6,42.6,50.0,42.7,37.0,93,70,35,29.64,29.51,11,3,15,0.00
2013-3-22,69.4,54.4,40.2,42.0,27.4,7.0,91,47,9,29.62,29.53,19,4,23,0.00
2013-3-23,69.5,53.8,38.9,37.0,31.1,21.0,77,48,18,29.66,29.55,9,2,13,0.00
2013-3-24,72.9,54.7,41.6,48.0,41.3,36.0,86,63,34,29.61,29.47,9,2,14,0.00
2013-3-25,61.2,51.2,43.8,46.0,43.7,41.0,92,77,52,29.52,29.45,10,4,17,0.00
2013-3-26,69.3,54.9,47.7,49.0,45.0,43.0,85,71,45,29.52,29.43,8,4,14,0.00
2013-3-27,66.0,56.1,47.6,52.0,48.2,43.0,87,76,58,29.53,29.46,11,3,16,0.00
2013-3-28,71.9,58.3,54.1,55.0,52.6,51.0,95,83,49,29.59,29.52,6,1,8,0.04